createdAt,value
2017-08-19T00:00:44.423Z,79.80
2017-08-19T00:03:12.805Z,77.90
2017-08-19T00:05:40.293Z,77.80
2017-08-19T00:08:07.821Z,76.80
2017-08-19T00:10:35.333Z,77.00
2017-08-19T00:13:02.844Z,77.50
2017-08-19T00:15:30.396Z,77.20
2017-08-19T00:17:57.894Z,77.00
2017-08-19T00:20:25.408Z,77.20
2017-08-19T00:22:52.919Z,77.30
2017-08-19T00:25:20.433Z,78.70
2017-08-19T00:27:47.949Z,78.20
2017-08-19T00:30:15.492Z,80.10
2017-08-19T00:32:42.995Z,80.60
2017-08-19T00:35:10.486Z,80.50
2017-08-19T00:37:38.009Z,80.60
2017-08-19T00:40:05.495Z,82.20
2017-08-19T00:42:33.000Z,82.10
2017-08-19T00:45:00.616Z,82.30
2017-08-19T00:47:28.142Z,83.10
2017-08-19T00:49:55.658Z,82.50
2017-08-19T00:52:23.148Z,82.40
2017-08-19T00:54:51.423Z,82.40
2017-08-19T00:57:19.688Z,82.70
2017-08-19T00:59:48.001Z,83.90
2017-08-19T01:02:15.550Z,84.00
2017-08-19T01:04:43.082Z,84.60
2017-08-19T01:07:11.383Z,84.70
2017-08-19T01:09:38.937Z,84.70
2017-08-19T01:12:06.437Z,84.50
2017-08-19T01:14:33.958Z,84.20
2017-08-19T01:17:01.509Z,84.50
2017-08-19T01:19:29.076Z,84.40
2017-08-19T01:21:56.633Z,83.60
2017-08-19T01:24:24.129Z,83.30
2017-08-19T01:26:57.685Z,84.80
2017-08-19T01:29:25.180Z,84.50
2017-08-19T01:31:52.736Z,84.70
2017-08-19T01:34:20.256Z,84.80
2017-08-19T01:36:47.792Z,84.80
2017-08-19T01:39:16.085Z,84.60
2017-08-19T01:41:43.643Z,84.60
2017-08-19T01:44:11.148Z,84.80
2017-08-19T01:46:38.642Z,84.70
2017-08-19T01:49:06.930Z,84.90
2017-08-19T01:51:34.427Z,84.90
2017-08-19T01:54:01.956Z,85.30
2017-08-19T01:56:29.473Z,85.60
2017-08-19T01:58:57.076Z,85.10
2017-08-19T02:01:24.625Z,85.10
2017-08-19T02:03:52.229Z,85.40
2017-08-19T02:06:19.745Z,85.40
2017-08-19T02:08:47.256Z,85.30
2017-08-19T02:11:14.764Z,85.80
2017-08-19T02:13:42.508Z,86.00
2017-08-19T02:16:10.780Z,85.80
2017-08-19T02:18:39.060Z,86.00
2017-08-19T02:21:07.345Z,85.90
2017-08-19T02:23:34.920Z,85.80
2017-08-19T02:26:02.404Z,85.90
2017-08-19T02:28:29.907Z,86.30
2017-08-19T02:30:58.202Z,86.30
2017-08-19T02:33:25.744Z,86.30
2017-08-19T02:35:53.996Z,86.70
2017-08-19T02:38:21.535Z,86.70
2017-08-19T02:40:49.020Z,86.50
2017-08-19T02:43:17.293Z,86.80
2017-08-19T02:45:45.615Z,86.10
2017-08-19T02:48:13.188Z,86.10
2017-08-19T02:50:40.723Z,86.60
2017-08-19T02:53:08.270Z,86.30
2017-08-19T02:55:35.820Z,86.30
2017-08-19T02:58:03.316Z,86.40
2017-08-19T03:00:30.830Z,86.50
2017-08-19T03:02:59.213Z,86.90
2017-08-19T03:05:26.726Z,86.90
2017-08-19T03:07:54.360Z,87.40
2017-08-19T03:10:21.896Z,87.20
2017-08-19T03:12:49.403Z,87.40
2017-08-19T03:15:16.911Z,87.10
2017-08-19T03:17:44.459Z,86.90
2017-08-19T03:20:12.716Z,83.50
2017-08-19T03:22:40.971Z,82.40
2017-08-19T03:25:08.480Z,82.10
2017-08-19T03:27:36.028Z,80.80
2017-08-19T03:30:03.564Z,78.90
2017-08-19T03:32:31.836Z,78.10
2017-08-19T03:34:59.416Z,77.30
2017-08-19T03:37:27.673Z,75.90
2017-08-19T03:39:55.943Z,74.90
2017-08-19T03:42:23.536Z,75.50
2017-08-19T03:44:51.093Z,75.10
2017-08-19T03:47:18.609Z,74.70
2017-08-19T03:49:46.104Z,75.10
2017-08-19T03:52:13.625Z,74.90
2017-08-19T03:54:41.214Z,74.50
2017-08-19T03:57:09.460Z,73.90
2017-08-19T03:59:36.968Z,73.90
2017-08-19T04:02:04.507Z,73.10
2017-08-19T04:04:32.083Z,73.10
2017-08-19T04:06:59.595Z,73.00
2017-08-19T04:09:27.076Z,73.00
2017-08-19T04:11:55.375Z,73.20
2017-08-19T04:14:22.866Z,73.10
2017-08-19T04:16:50.475Z,72.70
2017-08-19T04:19:17.957Z,73.20
2017-08-19T04:21:45.494Z,72.10
2017-08-19T04:24:13.031Z,71.80
2017-08-19T04:26:41.349Z,71.60
2017-08-19T04:29:08.832Z,71.50
2017-08-19T04:31:36.439Z,72.20
2017-08-19T04:34:04.028Z,72.00
2017-08-19T04:36:31.532Z,72.20
2017-08-19T04:38:59.788Z,73.70
2017-08-19T04:41:27.312Z,72.70
2017-08-19T04:43:54.805Z,73.80
2017-08-19T04:46:22.316Z,74.10
2017-08-19T04:48:49.828Z,74.90
2017-08-19T04:51:17.408Z,75.50
2017-08-19T04:53:45.704Z,77.30
2017-08-19T04:56:13.253Z,77.30
2017-08-19T04:58:40.764Z,77.00
2017-08-19T05:01:08.368Z,78.70
2017-08-19T05:03:35.866Z,79.60
2017-08-19T05:06:03.385Z,80.20
2017-08-19T05:08:30.937Z,79.20
2017-08-19T05:10:59.216Z,80.30
2017-08-19T05:13:26.785Z,80.30
2017-08-19T05:15:54.305Z,78.80
2017-08-19T05:18:22.568Z,77.40
2017-08-19T05:20:50.074Z,77.30
2017-08-19T05:23:17.583Z,78.00
2017-08-19T05:28:24.927Z,79.60
2017-08-19T05:30:52.419Z,78.30
2017-08-19T05:33:20.052Z,78.40
2017-08-19T05:35:47.549Z,78.30
2017-08-19T05:38:15.040Z,78.60
2017-08-19T05:40:42.568Z,78.90
2017-08-19T05:43:10.091Z,79.40
2017-08-19T05:45:37.600Z,78.90
2017-08-19T05:48:05.181Z,80.50
2017-08-19T05:50:32.769Z,77.90
2017-08-19T05:53:00.300Z,76.60
2017-08-19T05:55:27.860Z,77.50
2017-08-19T05:57:55.373Z,78.70
2017-08-19T06:00:22.880Z,78.50
2017-08-19T06:02:50.444Z,76.90
2017-08-19T06:05:17.993Z,76.50
2017-08-19T06:07:45.482Z,75.70
2017-08-19T06:10:12.998Z,76.00
2017-08-19T06:12:41.279Z,76.40
2017-08-19T06:15:09.683Z,76.40
2017-08-19T06:17:37.218Z,76.40
2017-08-19T06:20:04.781Z,77.70
2017-08-19T06:22:32.269Z,78.30
2017-08-19T06:24:59.769Z,78.70
2017-08-19T06:27:28.043Z,77.60
2017-08-19T06:29:56.298Z,78.00
2017-08-19T06:32:23.865Z,78.80
2017-08-19T06:34:51.352Z,79.50
2017-08-19T06:37:19.657Z,80.00
2017-08-19T06:39:47.164Z,79.90
2017-08-19T06:42:14.673Z,80.10
2017-08-19T06:44:42.205Z,79.60
2017-08-19T06:47:09.786Z,79.20
2017-08-19T06:49:37.276Z,79.90
2017-08-19T06:52:04.828Z,79.10
2017-08-19T06:54:32.336Z,79.10
2017-08-19T06:56:59.942Z,79.80
2017-08-19T06:59:27.436Z,79.90
2017-08-19T07:01:54.977Z,79.70
2017-08-19T07:04:22.583Z,80.00
2017-08-19T07:06:50.140Z,80.60
2017-08-19T07:09:17.675Z,80.10
2017-08-19T07:11:45.938Z,80.50
2017-08-19T07:14:14.225Z,80.80
2017-08-19T07:16:41.733Z,80.70
2017-08-19T07:19:09.261Z,80.20
2017-08-19T07:21:36.764Z,80.30
2017-08-19T07:24:04.264Z,80.30
2017-08-19T07:26:31.789Z,79.50
2017-08-19T07:29:00.069Z,78.70
2017-08-19T07:31:27.610Z,78.70
2017-08-19T07:33:55.130Z,79.20
2017-08-19T07:36:22.625Z,78.50
2017-08-19T07:38:50.232Z,78.90
2017-08-19T07:41:17.727Z,78.70
2017-08-19T07:43:45.261Z,78.30
2017-08-19T07:46:12.764Z,77.90
2017-08-19T07:48:40.273Z,78.50
2017-08-19T07:51:07.783Z,78.10
2017-08-19T07:53:35.273Z,78.50
2017-08-19T07:56:02.883Z,77.90
2017-08-19T07:58:30.485Z,77.30
2017-08-19T08:00:58.779Z,77.40
2017-08-19T08:03:26.323Z,77.40
2017-08-19T08:05:53.807Z,77.80
2017-08-19T08:08:21.351Z,76.90
2017-08-19T08:10:48.872Z,76.70
2017-08-19T08:13:17.159Z,76.80
2017-08-19T08:15:45.465Z,76.50
2017-08-19T08:18:12.966Z,76.40
2017-08-19T08:20:40.494Z,76.40
2017-08-19T08:23:07.980Z,76.70
2017-08-19T08:25:35.470Z,76.40
2017-08-19T08:28:02.979Z,76.70
2017-08-19T08:30:30.473Z,76.30
2017-08-19T08:32:58.764Z,76.60
2017-08-19T08:35:26.260Z,76.60
2017-08-19T08:37:53.750Z,76.80
2017-08-19T08:40:21.278Z,77.00
2017-08-19T08:42:48.805Z,75.80
2017-08-19T08:45:16.382Z,75.50
2017-08-19T08:47:43.891Z,74.90
2017-08-19T08:50:12.189Z,76.00
2017-08-19T08:52:39.753Z,76.00
2017-08-19T08:55:07.249Z,75.00
2017-08-19T08:57:34.791Z,73.80
2017-08-19T09:00:02.332Z,75.40
2017-08-19T09:02:29.845Z,74.40
2017-08-19T09:04:57.340Z,73.80
2017-08-19T09:07:24.888Z,73.00
2017-08-19T09:09:53.141Z,72.00
2017-08-19T09:12:20.653Z,71.90
2017-08-19T09:14:48.181Z,70.80
2017-08-19T09:17:15.672Z,67.00
2017-08-19T09:19:43.218Z,66.10
2017-08-19T09:22:10.720Z,67.40
2017-08-19T09:24:38.328Z,65.70
2017-08-19T09:27:05.835Z,65.50
2017-08-19T09:29:33.325Z,65.30
2017-08-19T09:32:00.853Z,64.80
2017-08-19T09:34:28.366Z,65.40
2017-08-19T09:36:55.911Z,65.70
2017-08-19T09:39:23.417Z,64.10
2017-08-19T09:41:50.937Z,63.40
2017-08-19T09:44:18.492Z,63.40
2017-08-19T09:46:46.012Z,63.90
2017-08-19T09:49:14.408Z,65.10
2017-08-19T09:51:41.940Z,65.00
2017-08-19T09:54:09.452Z,65.40
2017-08-19T09:56:37.107Z,65.10
2017-08-19T09:59:04.607Z,65.10
2017-08-19T10:01:32.216Z,65.70
2017-08-19T10:03:59.742Z,65.70
2017-08-19T10:06:28.038Z,65.90
2017-08-19T10:09:07.481Z,65.90
2017-08-19T10:11:35.048Z,66.00
2017-08-19T10:14:02.561Z,65.90
2017-08-19T10:16:30.084Z,65.50
2017-08-19T10:18:57.589Z,64.70
2017-08-19T10:21:25.877Z,63.10
2017-08-19T10:23:53.462Z,63.10
2017-08-19T10:26:20.968Z,63.70
2017-08-19T10:28:48.576Z,65.00
2017-08-19T10:31:16.095Z,64.40
2017-08-19T10:33:44.395Z,62.40
2017-08-19T10:36:11.923Z,62.50
2017-08-19T10:38:40.188Z,60.00
2017-08-19T10:41:07.711Z,59.50
2017-08-19T10:43:35.232Z,59.20
2017-08-19T10:46:03.558Z,57.30
2017-08-19T10:48:31.066Z,57.20
2017-08-19T10:50:58.557Z,57.50
2017-08-19T10:53:26.077Z,56.60
2017-08-19T10:55:54.329Z,55.80
2017-08-19T10:58:21.935Z,55.80
2017-08-19T11:00:49.446Z,56.00
2017-08-19T11:03:16.962Z,55.50
2017-08-19T11:05:44.492Z,56.10
2017-08-19T11:08:11.992Z,55.20
2017-08-19T11:10:39.522Z,54.50
2017-08-19T11:13:07.188Z,54.40
2017-08-19T11:15:34.705Z,54.80
2017-08-19T11:18:03.014Z,55.00
2017-08-19T11:20:30.578Z,54.90
2017-08-19T11:22:58.116Z,54.10
2017-08-19T11:25:25.619Z,53.50
2017-08-19T11:27:53.116Z,51.70
2017-08-19T11:30:21.421Z,53.10
2017-08-19T11:32:48.985Z,53.00
2017-08-19T11:35:16.500Z,51.50
2017-08-19T11:37:44.016Z,52.40
2017-08-19T11:40:11.519Z,51.40
2017-08-19T11:42:39.801Z,50.30
2017-08-19T11:45:08.064Z,50.20
2017-08-19T11:47:35.577Z,50.10
2017-08-19T11:50:03.077Z,48.90
2017-08-19T11:52:30.605Z,48.90
2017-08-19T11:54:58.100Z,50.00
2017-08-19T11:57:26.364Z,50.20
2017-08-19T11:59:53.893Z,50.20
2017-08-19T12:02:21.391Z,47.70
2017-08-19T12:04:49.652Z,48.20
2017-08-19T12:07:17.192Z,48.10
2017-08-19T12:09:44.772Z,47.70
2017-08-19T12:12:12.274Z,47.40
2017-08-19T12:14:40.771Z,47.10
2017-08-19T12:17:08.296Z,47.40
2017-08-19T12:19:35.797Z,48.20
2017-08-19T12:22:03.326Z,48.40
2017-08-19T12:24:30.849Z,47.10
2017-08-19T12:26:59.150Z,46.80
2017-08-19T12:29:26.642Z,46.80
2017-08-19T12:31:54.189Z,46.20
2017-08-19T12:34:21.720Z,45.00
2017-08-19T12:36:49.224Z,44.40
2017-08-19T12:39:16.789Z,45.90
2017-08-19T12:41:44.294Z,44.60
2017-08-19T12:44:11.798Z,45.80
2017-08-19T12:46:39.353Z,45.80
2017-08-19T12:49:06.876Z,45.10
2017-08-19T12:51:34.400Z,44.50
2017-08-19T12:54:02.656Z,42.00
2017-08-19T12:56:30.144Z,41.90
2017-08-19T12:58:57.725Z,42.80
2017-08-19T13:01:25.264Z,42.00
2017-08-19T13:03:52.753Z,42.90
2017-08-19T13:06:20.278Z,42.10
2017-08-19T13:08:47.778Z,41.90
2017-08-19T13:11:15.292Z,41.60
2017-08-19T13:13:42.861Z,42.10
2017-08-19T13:16:10.348Z,42.20
2017-08-19T13:18:37.866Z,42.40
2017-08-19T13:21:05.374Z,41.30
2017-08-19T13:23:33.426Z,42.40
2017-08-19T13:26:00.925Z,42.10
2017-08-19T13:28:28.430Z,42.80
2017-08-19T13:30:55.949Z,42.50
2017-08-19T13:33:24.266Z,40.50
2017-08-19T13:35:51.804Z,40.50
2017-08-19T13:38:19.312Z,40.20
2017-08-19T13:40:46.857Z,40.50
2017-08-19T13:43:14.364Z,40.90
2017-08-19T13:45:42.627Z,40.50
2017-08-19T13:48:10.937Z,38.80
2017-08-19T13:50:38.454Z,38.80
2017-08-19T13:53:06.767Z,39.10
2017-08-19T13:55:34.287Z,38.90
2017-08-19T13:58:01.873Z,39.60
2017-08-19T14:00:29.395Z,40.00
2017-08-19T14:02:56.895Z,40.70
2017-08-19T14:05:24.437Z,41.30
2017-08-19T14:07:52.729Z,41.20
2017-08-19T14:10:20.226Z,41.20
2017-08-19T14:12:47.738Z,41.00
2017-08-19T14:15:15.228Z,40.80
2017-08-19T14:17:42.732Z,41.30
2017-08-19T14:20:11.020Z,43.20
2017-08-19T14:22:39.312Z,42.70
2017-08-19T14:25:06.823Z,42.60
2017-08-19T14:27:34.353Z,43.60
2017-08-19T14:30:01.873Z,43.40
2017-08-19T14:32:29.369Z,44.50
2017-08-19T14:34:56.884Z,44.90
2017-08-19T14:37:25.181Z,44.30
2017-08-19T14:39:52.679Z,44.20
2017-08-19T14:42:20.167Z,43.30
2017-08-19T14:44:48.574Z,42.50
2017-08-19T14:47:16.075Z,42.30
2017-08-19T14:49:43.571Z,42.30
2017-08-19T14:52:11.117Z,42.60
2017-08-19T14:54:39.396Z,43.20
2017-08-19T14:57:07.704Z,43.80
2017-08-19T14:59:35.218Z,43.70
2017-08-19T15:02:03.516Z,42.20
2017-08-19T15:04:31.028Z,42.20
2017-08-19T15:06:58.519Z,42.70
2017-08-19T15:09:26.829Z,43.90
2017-08-19T15:11:54.337Z,43.80
2017-08-19T15:14:21.852Z,43.40
2017-08-19T15:16:49.489Z,43.40
2017-08-19T15:19:17.068Z,42.90
2017-08-19T15:21:44.568Z,42.00
2017-08-19T15:24:12.092Z,41.30
2017-08-19T15:26:39.576Z,41.80
2017-08-19T15:29:07.108Z,41.10
2017-08-19T15:31:34.612Z,41.00
2017-08-19T15:34:02.195Z,41.80
2017-08-19T15:36:29.724Z,42.30
2017-08-19T15:38:57.972Z,42.60
2017-08-19T15:41:25.508Z,42.60
2017-08-19T15:43:53.017Z,43.10
2017-08-19T15:46:21.289Z,43.90
2017-08-19T15:48:49.624Z,44.90
2017-08-19T15:51:17.121Z,44.80
2017-08-19T15:53:45.422Z,44.40
2017-08-19T15:56:12.980Z,44.80
2017-08-19T15:58:40.541Z,45.20
2017-08-19T16:01:08.109Z,45.40
2017-08-19T16:03:35.619Z,45.50
2017-08-19T16:06:03.204Z,45.30
2017-08-19T16:08:30.704Z,45.60
2017-08-19T16:10:58.210Z,45.70
2017-08-19T16:13:26.604Z,46.00
2017-08-19T16:15:54.108Z,45.90
2017-08-19T16:18:21.637Z,45.70
2017-08-19T16:20:49.300Z,46.10
2017-08-19T16:23:16.792Z,46.20
2017-08-19T16:25:44.316Z,45.60
2017-08-19T16:28:11.820Z,45.50
2017-08-19T16:30:39.424Z,45.40
2017-08-19T16:33:06.972Z,45.10
2017-08-19T16:35:34.521Z,44.40
2017-08-19T16:38:02.016Z,44.50
2017-08-19T16:40:29.496Z,44.30
2017-08-19T16:42:57.004Z,44.40
2017-08-19T16:45:24.522Z,44.70
2017-08-19T16:47:52.126Z,45.00
2017-08-19T16:50:19.716Z,44.90
2017-08-19T16:52:47.213Z,45.00
2017-08-19T16:55:15.497Z,45.10
2017-08-19T16:57:43.761Z,45.80
2017-08-19T17:00:12.053Z,45.80
2017-08-19T17:02:39.572Z,45.70
2017-08-19T17:05:07.056Z,45.40
2017-08-19T17:07:35.360Z,44.50
2017-08-19T17:10:02.904Z,45.10
2017-08-19T17:12:30.409Z,44.20
2017-08-19T17:14:57.928Z,44.40
2017-08-19T17:17:25.488Z,44.40
2017-08-19T17:19:53.021Z,44.70
2017-08-19T17:22:21.303Z,44.90
2017-08-19T17:24:49.595Z,45.10
2017-08-19T17:27:17.137Z,45.10
2017-08-19T17:29:44.689Z,44.70
2017-08-19T17:32:12.962Z,44.50
2017-08-19T17:34:41.256Z,44.30
2017-08-19T17:37:08.780Z,44.30
2017-08-19T17:39:36.391Z,44.40
2017-08-19T17:42:03.936Z,44.60
2017-08-19T17:44:31.473Z,44.30
2017-08-19T17:46:59.774Z,44.20
2017-08-19T17:49:27.306Z,44.20
2017-08-19T17:51:55.605Z,44.50
2017-08-19T17:54:23.108Z,44.50
2017-08-19T17:56:50.716Z,44.40
2017-08-19T17:59:18.278Z,44.60
2017-08-19T18:01:45.813Z,45.00
2017-08-19T18:04:14.090Z,45.60
2017-08-19T18:06:42.360Z,45.70
2017-08-19T18:09:10.657Z,46.40
2017-08-19T18:11:38.148Z,46.30
2017-08-19T18:14:05.691Z,46.40
2017-08-19T18:16:33.194Z,46.90
2017-08-19T18:19:00.697Z,48.00
2017-08-19T18:21:28.225Z,47.60
2017-08-19T18:23:56.492Z,48.90
2017-08-19T18:26:24.786Z,50.00
2017-08-19T18:28:52.378Z,49.20
2017-08-19T18:31:19.944Z,49.10
2017-08-19T18:33:47.471Z,49.70
2017-08-19T18:36:15.040Z,51.20
2017-08-19T18:38:42.540Z,52.10
2017-08-19T18:41:10.105Z,52.30
2017-08-19T18:43:37.612Z,53.10
2017-08-19T18:46:05.178Z,53.40
2017-08-19T18:48:32.674Z,53.50
2017-08-19T18:51:00.188Z,53.60
2017-08-19T18:53:27.678Z,53.80
2017-08-19T18:55:55.305Z,53.70
2017-08-19T18:58:22.856Z,54.60
2017-08-19T19:00:50.389Z,54.20
2017-08-19T19:03:18.665Z,53.80
2017-08-19T19:05:46.924Z,53.20
2017-08-19T19:08:14.440Z,53.10
2017-08-19T19:10:41.936Z,52.50
2017-08-19T19:13:09.463Z,53.10
2017-08-19T19:15:36.989Z,53.10
2017-08-19T19:18:04.473Z,53.40
2017-08-19T19:20:31.988Z,53.20
2017-08-19T19:23:00.242Z,54.40
2017-08-19T19:25:27.857Z,54.30
2017-08-19T19:27:55.378Z,55.00
2017-08-19T19:30:23.649Z,54.80
2017-08-19T19:32:51.958Z,53.70
2017-08-19T19:35:19.468Z,53.70
2017-08-19T19:37:47.071Z,54.10
2017-08-19T19:40:14.600Z,54.90
2017-08-19T19:42:42.871Z,55.70
2017-08-19T19:45:11.162Z,57.00
2017-08-19T19:47:38.682Z,56.60
2017-08-19T19:50:06.179Z,56.60
2017-08-19T19:52:33.738Z,56.60
2017-08-19T19:55:01.236Z,57.00
2017-08-19T19:57:28.745Z,56.60
2017-08-19T19:59:57.025Z,57.40
2017-08-19T20:02:24.533Z,57.30
2017-08-19T20:04:52.056Z,57.70
2017-08-19T20:07:19.605Z,57.90
2017-08-19T20:09:47.159Z,58.60
2017-08-19T20:12:14.696Z,58.10
2017-08-19T20:14:42.269Z,58.70
2017-08-19T20:17:09.876Z,58.70
2017-08-19T20:19:37.527Z,58.60
2017-08-19T20:22:05.017Z,59.30
2017-08-19T20:24:32.540Z,59.60
2017-08-19T20:27:00.039Z,60.30
2017-08-19T20:29:27.543Z,60.30
2017-08-19T20:31:55.082Z,59.90
2017-08-19T20:34:22.584Z,60.40
2017-08-19T20:36:50.118Z,61.10
2017-08-19T20:39:17.613Z,62.10
2017-08-19T20:41:45.111Z,60.40
2017-08-19T20:44:12.648Z,60.60
2017-08-19T20:46:40.928Z,62.00
2017-08-19T20:49:09.185Z,61.80
2017-08-19T20:51:36.717Z,61.80
2017-08-19T20:54:04.213Z,61.90
2017-08-19T20:56:32.509Z,62.30
2017-08-19T20:59:00.012Z,62.30
2017-08-19T21:01:27.552Z,62.60
2017-08-19T21:03:55.040Z,61.70
2017-08-19T21:06:22.561Z,61.70
2017-08-19T21:08:50.091Z,61.70
2017-08-19T21:11:18.394Z,61.80
2017-08-19T21:13:45.925Z,61.80
2017-08-19T21:16:14.180Z,62.40
2017-08-19T21:18:42.453Z,62.70
2017-08-19T21:21:09.975Z,62.80
2017-08-19T21:23:37.483Z,62.90
2017-08-19T21:26:05.772Z,64.50
2017-08-19T21:28:33.273Z,64.40
2017-08-19T21:31:00.760Z,64.30
2017-08-19T21:33:29.046Z,63.80
2017-08-19T21:35:57.325Z,64.50
2017-08-19T21:38:25.616Z,64.70
2017-08-19T21:40:53.108Z,64.70
2017-08-19T21:43:20.638Z,65.40
2017-08-19T21:45:48.168Z,65.30
2017-08-19T21:48:16.421Z,64.60
2017-08-19T21:50:43.928Z,64.60
2017-08-19T21:53:11.471Z,65.10
2017-08-19T21:55:39.000Z,64.90
2017-08-19T21:58:07.265Z,64.30
2017-08-19T22:00:34.752Z,64.20
2017-08-19T22:03:03.060Z,64.90
2017-08-19T22:05:30.560Z,64.90
2017-08-19T22:07:58.081Z,64.80
2017-08-19T22:10:25.600Z,65.00
2017-08-19T22:12:53.894Z,65.00
2017-08-19T22:15:21.384Z,65.00
2017-08-19T22:17:48.893Z,64.70
2017-08-19T22:20:17.165Z,66.00
2017-08-19T22:22:45.450Z,65.70
2017-08-19T22:25:13.017Z,65.50
2017-08-19T22:27:40.533Z,65.70
2017-08-19T22:30:08.022Z,64.90
2017-08-19T22:32:35.553Z,64.20
2017-08-19T22:35:03.077Z,65.10
2017-08-19T22:37:30.568Z,65.20
2017-08-19T22:39:58.104Z,65.00
2017-08-19T22:42:25.613Z,65.70
2017-08-19T22:44:53.108Z,66.00
2017-08-19T22:47:20.637Z,66.00
2017-08-19T22:49:48.201Z,66.10
2017-08-19T22:52:15.714Z,65.80
2017-08-19T22:54:43.206Z,66.00
2017-08-19T22:57:10.727Z,65.90
2017-08-19T22:59:38.241Z,66.30
2017-08-19T23:02:05.744Z,66.60
2017-08-19T23:04:33.273Z,66.80
2017-08-19T23:07:00.784Z,66.70
2017-08-19T23:09:28.281Z,66.80
2017-08-19T23:11:55.884Z,68.00
2017-08-19T23:14:24.147Z,67.60
2017-08-19T23:16:51.634Z,67.40
2017-08-19T23:19:19.144Z,67.80
2017-08-19T23:21:46.633Z,67.50
2017-08-19T23:24:14.912Z,67.10
2017-08-19T23:26:43.200Z,67.90
2017-08-19T23:29:10.691Z,67.90
2017-08-19T23:31:38.312Z,68.90
2017-08-19T23:34:05.808Z,68.40
2017-08-19T23:36:33.324Z,68.20
2017-08-19T23:39:01.578Z,68.70
2017-08-19T23:41:29.180Z,68.70
2017-08-19T23:43:56.680Z,69.20
2017-08-19T23:46:24.168Z,68.60
2017-08-19T23:48:52.564Z,67.50
2017-08-19T23:51:20.093Z,67.60
2017-08-19T23:53:48.409Z,67.30
2017-08-19T23:56:15.927Z,67.20
2017-08-19T23:58:44.210Z,69.60
